PWSweather.com
Personal Weather Stations
Station Observations
948974
Valtournenche, AostaIT 11028

ValtournencheAostaIT 11028

Lat: 45.877222, Lon: 7.625556

Elevation: 5085.3018

Station Type: PCE-FWS 20

http://www.cdso.it

High Low Average
Temperature 46.0°F7.8°C 22.1°F-5.5°C 32.1°F0.1°C
Dew Point 22.5°F-5.3°C 5.7°F-14.6°C 13.2°F-10.4°C
Winds 8.0 mph 12.9 kmh Calm Calm 3.0 mph SSE4.8 kmh SSE
Wind Gusts 11.0 mph17.7 kmh 2.0 mph3.2 kmh 4.0 mph6.4 kmh
Humidity 62% 27% 46%
Pressure 30.55 in1034.5 mb 30.26 in1024.7 mb -
Precipitation 0.00 in0.0 mm - -
Hour Temp Dew Point Humidity Winds Wind Gusts Pressure Precip Precip Rate Daily Precip Total
12:15 AM 26.1°F-3.3°C 8.6°F-13.0°C 47% 2.0 mph E3.2 kmh E 2.0 mph3.2 kmh 30.45 in1031.2 mb 0.00 in0.0 mm 0.00 in0.0 mm 0.00 in0.0 mm
12:36 AM 26.1°F-3.3°C 8.6°F-13.0°C 47% 2.0 mph NE3.2 kmh NE 3.0 mph4.8 kmh 30.46 in1031.5 mb 0.00 in0.0 mm 0.00 in0.0 mm 0.00 in0.0 mm
12:57 AM 25.5°F-3.6°C 8.1°F-13.3°C 47% 1.0 mph NE1.6 kmh NE 2.0 mph3.2 kmh 30.47 in1031.8 mb 0.00 in0.0 mm 0.00 in0.0 mm 0.00 in0.0 mm
01:18 AM 24.8°F-4.0°C 8.4°F-13.1°C 49% 2.0 mph NE3.2 kmh NE 2.0 mph3.2 kmh 30.48 in1032.2 mb 0.00 in0.0 mm 0.00 in0.0 mm 0.00 in0.0 mm
01:39 AM 25.9°F-3.4°C 8.0°F-13.3°C 46% 3.0 mph NE4.8 kmh NE 4.0 mph6.4 kmh 30.47 in1031.8 mb 0.00 in0.0 mm 0.00 in0.0 mm 0.00 in0.0 mm
02:00 AM 24.4°F-4.2°C 7.6°F-13.6°C 48% 2.0 mph 3.2 kmh 2.0 mph3.2 kmh 30.49 in1032.5 mb 0.00 in0.0 mm 0.00 in0.0 mm 0.00 in0.0 mm
02:21 AM 24.3°F-4.3°C 7.9°F-13.4°C 49% 2.0 mph NNE3.2 kmh NNE 2.0 mph3.2 kmh 30.49 in1032.5 mb 0.00 in0.0 mm 0.00 in0.0 mm 0.00 in0.0 mm
02:42 AM 25.2°F-3.8°C 6.8°F-14.0°C 45% 2.0 mph NE3.2 kmh NE 4.0 mph6.4 kmh 30.47 in1031.8 mb 0.00 in0.0 mm 0.00 in0.0 mm 0.00 in0.0 mm
03:03 AM 23.7°F-4.6°C 6.5°F-14.2°C 47% 2.0 mph NE3.2 kmh NE 2.0 mph3.2 kmh 30.49 in1032.5 mb 0.00 in0.0 mm 0.00 in0.0 mm 0.00 in0.0 mm
03:24 AM 23.9°F-4.5°C 7.1°F-13.8°C 48% 2.0 mph E3.2 kmh E 3.0 mph4.8 kmh 30.49 in1032.5 mb 0.00 in0.0 mm 0.00 in0.0 mm 0.00 in0.0 mm
03:45 AM 23.7°F-4.6°C 6.9°F-13.9°C 48% 4.0 mph NE6.4 kmh NE 5.0 mph8.0 kmh 30.49 in1032.5 mb 0.00 in0.0 mm 0.00 in0.0 mm 0.00 in0.0 mm
04:06 AM 23.4°F-4.8°C 7.1°F-13.8°C 49% 2.0 mph 3.2 kmh 3.0 mph4.8 kmh 30.49 in1032.5 mb 0.00 in0.0 mm 0.00 in0.0 mm 0.00 in0.0 mm
04:27 AM 23.5°F-4.7°C 6.8°F-14.0°C 48% 2.0 mph 3.2 kmh 3.0 mph4.8 kmh 30.49 in1032.5 mb 0.00 in0.0 mm 0.00 in0.0 mm 0.00 in0.0 mm
04:48 AM 23.5°F-4.7°C 5.8°F-14.6°C 46% 2.0 mph 3.2 kmh 2.0 mph3.2 kmh 30.50 in1032.8 mb 0.00 in0.0 mm 0.00 in0.0 mm 0.00 in0.0 mm
05:09 AM 23.0°F-5.0°C 6.3°F-14.3°C 48% 2.0 mph 3.2 kmh 3.0 mph4.8 kmh 30.51 in1033.2 mb 0.00 in0.0 mm 0.00 in0.0 mm 0.00 in0.0 mm
05:30 AM 23.9°F-4.5°C 5.7°F-14.6°C 45% 3.0 mph 4.8 kmh 4.0 mph6.4 kmh 30.50 in1032.8 mb 0.00 in0.0 mm 0.00 in0.0 mm 0.00 in0.0 mm
05:51 AM 22.5°F-5.3°C 5.8°F-14.6°C 48% 2.0 mph 3.2 kmh 2.0 mph3.2 kmh 30.52 in1033.5 mb 0.00 in0.0 mm 0.00 in0.0 mm 0.00 in0.0 mm
06:12 AM 23.0°F-5.0°C 6.3°F-14.3°C 48% 2.0 mph 3.2 kmh 3.0 mph4.8 kmh 30.51 in1033.2 mb 0.00 in0.0 mm 0.00 in0.0 mm 0.00 in0.0 mm
06:33 AM 22.6°F-5.2°C 6.8°F-14.0°C 50% 4.0 mph 6.4 kmh 6.0 mph9.7 kmh 30.52 in1033.5 mb 0.00 in0.0 mm 0.00 in0.0 mm 0.00 in0.0 mm
06:54 AM 22.8°F-5.1°C 7.4°F-13.7°C 51% 1.0 mph 1.6 kmh 2.0 mph3.2 kmh 30.53 in1033.9 mb 0.00 in0.0 mm 0.00 in0.0 mm 0.00 in0.0 mm
07:15 AM 22.1°F-5.5°C 8.0°F-13.3°C 54% 2.0 mph 3.2 kmh 3.0 mph4.8 kmh 30.55 in1034.5 mb 0.00 in0.0 mm 0.00 in0.0 mm 0.00 in0.0 mm
07:36 AM 22.6°F-5.2°C 8.9°F-12.8°C 55% 3.0 mph 4.8 kmh 4.0 mph6.4 kmh 30.55 in1034.5 mb 0.00 in0.0 mm 0.00 in0.0 mm 0.00 in0.0 mm
07:57 AM 24.1°F-4.4°C 6.3°F-14.3°C 46% 4.0 mph NW6.4 kmh NW 4.0 mph6.4 kmh 30.53 in1033.9 mb 0.00 in0.0 mm 0.00 in0.0 mm 0.00 in0.0 mm
08:18 AM 24.1°F-4.4°C 7.3°F-13.7°C 48% 2.0 mph NW3.2 kmh NW 3.0 mph4.8 kmh 30.54 in1034.2 mb 0.00 in0.0 mm 0.00 in0.0 mm 0.00 in0.0 mm
08:39 AM 24.6°F-4.1°C 6.8°F-14.0°C 46% 2.0 mph NW3.2 kmh NW 4.0 mph6.4 kmh 30.53 in1033.9 mb 0.00 in0.0 mm 0.00 in0.0 mm 0.00 in0.0 mm
09:00 AM 34.3°F1.3°C 13.7°F-10.2°C 42% 1.0 mph NW1.6 kmh NW 2.0 mph3.2 kmh 30.42 in1030.1 mb 0.00 in0.0 mm 0.00 in0.0 mm 0.00 in0.0 mm
09:21 AM 33.1°F0.6°C 7.1°F-13.8°C 33% 2.0 mph NW3.2 kmh NW 3.0 mph4.8 kmh 30.43 in1030.5 mb 0.00 in0.0 mm 0.00 in0.0 mm 0.00 in0.0 mm
09:42 AM 32.9°F0.5°C 9.5°F-12.5°C 37% 3.0 mph NW4.8 kmh NW 4.0 mph6.4 kmh 30.44 in1030.8 mb 0.00 in0.0 mm 0.00 in0.0 mm 0.00 in0.0 mm
10:03 AM 33.1°F0.6°C 14.1°F-9.9°C 45% 3.0 mph SW4.8 kmh SW 5.0 mph8.0 kmh 30.44 in1030.8 mb 0.00 in0.0 mm 0.00 in0.0 mm 0.00 in0.0 mm
10:24 AM 33.8°F1.0°C 13.2°F-10.4°C 42% 4.0 mph S6.4 kmh S 6.0 mph9.7 kmh 30.43 in1030.5 mb 0.00 in0.0 mm 0.00 in0.0 mm 0.00 in0.0 mm
10:45 AM 33.8°F1.0°C 13.7°F-10.2°C 43% 4.0 mph S6.4 kmh S 6.0 mph9.7 kmh 30.44 in1030.8 mb 0.00 in0.0 mm 0.00 in0.0 mm 0.00 in0.0 mm
11:06 AM 35.1°F1.7°C 16.4°F-8.7°C 46% 3.0 mph S4.8 kmh S 4.0 mph6.4 kmh 30.42 in1030.1 mb 0.00 in0.0 mm 0.00 in0.0 mm 0.00 in0.0 mm
11:27 AM 36.3°F2.4°C 15.5°F-9.2°C 42% 4.0 mph S6.4 kmh S 6.0 mph9.7 kmh 30.41 in1029.8 mb 0.00 in0.0 mm 0.00 in0.0 mm 0.00 in0.0 mm
11:48 AM 37.9°F3.3°C 19.0°F-7.2°C 46% 7.0 mph S11.3 kmh S 8.0 mph12.9 kmh 30.38 in1028.8 mb 0.00 in0.0 mm 0.00 in0.0 mm 0.00 in0.0 mm
12:09 PM 40.1°F4.5°C 14.7°F-9.6°C 35% 4.0 mph S6.4 kmh S 6.0 mph9.7 kmh 30.36 in1028.1 mb 0.00 in0.0 mm 0.00 in0.0 mm 0.00 in0.0 mm
12:30 PM 39.7°F4.3°C 13.0°F-10.6°C 33% 3.0 mph S4.8 kmh S 5.0 mph8.0 kmh 30.36 in1028.1 mb 0.00 in0.0 mm 0.00 in0.0 mm 0.00 in0.0 mm
12:51 PM 40.6°F4.8°C 14.5°F-9.7°C 34% 6.0 mph SW9.7 kmh SW 9.0 mph14.5 kmh 30.35 in1027.8 mb 0.00 in0.0 mm 0.00 in0.0 mm 0.00 in0.0 mm
01:12 PM 43.2°F6.2°C 11.5°F-11.4°C 27% 5.0 mph SW8.0 kmh SW 8.0 mph12.9 kmh 30.31 in1026.4 mb 0.00 in0.0 mm 0.00 in0.0 mm 0.00 in0.0 mm
01:33 PM 42.6°F5.9°C 12.6°F-10.8°C 29% 4.0 mph SW6.4 kmh SW 7.0 mph11.3 kmh 30.31 in1026.4 mb 0.00 in0.0 mm 0.00 in0.0 mm 0.00 in0.0 mm
01:54 PM 43.7°F6.5°C 12.8°F-10.7°C 28% 4.0 mph SW6.4 kmh SW 6.0 mph9.7 kmh 30.30 in1026.1 mb 0.00 in0.0 mm 0.00 in0.0 mm 0.00 in0.0 mm
02:15 PM 43.3°F6.3°C 14.0°F-10.0°C 30% 8.0 mph SW12.9 kmh SW 10.0 mph16.1 kmh 30.29 in1025.7 mb 0.00 in0.0 mm 0.00 in0.0 mm 0.00 in0.0 mm
02:36 PM 44.8°F7.1°C 14.5°F-9.7°C 29% 4.0 mph SW6.4 kmh SW 7.0 mph11.3 kmh 30.28 in1025.4 mb 0.00 in0.0 mm 0.00 in0.0 mm 0.00 in0.0 mm
02:57 PM 45.0°F7.2°C 16.2°F-8.8°C 31% 7.0 mph S11.3 kmh S 10.0 mph16.1 kmh 30.26 in1024.7 mb 0.00 in0.0 mm 0.00 in0.0 mm 0.00 in0.0 mm
03:18 PM 45.1°F7.3°C 16.3°F-8.7°C 31% 3.0 mph SW4.8 kmh SW 9.0 mph14.5 kmh 30.27 in1025.1 mb 0.00 in0.0 mm 0.00 in0.0 mm 0.00 in0.0 mm
03:39 PM 45.0°F7.2°C 18.3°F-7.6°C 34% 7.0 mph WSW11.3 kmh WSW 11.0 mph17.7 kmh 30.27 in1025.1 mb 0.00 in0.0 mm 0.00 in0.0 mm 0.00 in0.0 mm
04:21 PM 45.0°F7.2°C 18.3°F-7.6°C 34% 5.0 mph S8.0 kmh S 11.0 mph17.7 kmh 30.27 in1025.1 mb 0.00 in0.0 mm 0.00 in0.0 mm 0.00 in0.0 mm
04:42 PM 46.0°F7.8°C 19.5°F-6.9°C 34% 4.0 mph SW6.4 kmh SW 8.0 mph12.9 kmh 30.26 in1024.7 mb 0.00 in0.0 mm 0.00 in0.0 mm 0.00 in0.0 mm
05:03 PM 44.9°F7.2°C 20.6°F-6.3°C 38% 4.0 mph WSW6.4 kmh WSW 8.0 mph12.9 kmh 30.27 in1025.1 mb 0.00 in0.0 mm 0.00 in0.0 mm 0.00 in0.0 mm
05:21 PM 40.9°F4.9°C 21.0°F-6.1°C 45% 1.0 mph W1.6 kmh W 4.0 mph6.4 kmh 30.32 in1026.8 mb 0.00 in0.0 mm 0.00 in0.0 mm 0.00 in0.0 mm
05:42 PM 38.4°F3.6°C 22.5°F-5.3°C 52% Calm Calm 3.0 mph4.8 kmh 30.36 in1028.1 mb 0.00 in0.0 mm 0.00 in0.0 mm 0.00 in0.0 mm
06:21 PM 36.9°F2.7°C 20.3°F-6.5°C 51% 1.0 mph W1.6 kmh W 3.0 mph4.8 kmh 30.38 in1028.8 mb 0.00 in0.0 mm 0.00 in0.0 mm 0.00 in0.0 mm
06:42 PM 35.8°F2.1°C 19.7°F-6.8°C 51% Calm Calm 2.0 mph3.2 kmh 30.40 in1029.5 mb 0.00 in0.0 mm 0.00 in0.0 mm 0.00 in0.0 mm
07:03 PM 34.6°F1.4°C 18.9°F-7.3°C 52% 1.0 mph W1.6 kmh W 2.0 mph3.2 kmh 30.42 in1030.1 mb 0.00 in0.0 mm 0.00 in0.0 mm 0.00 in0.0 mm
07:21 PM 33.8°F1.0°C 18.9°F-7.3°C 54% 1.0 mph W1.6 kmh W 3.0 mph4.8 kmh 30.44 in1030.8 mb 0.00 in0.0 mm 0.00 in0.0 mm 0.00 in0.0 mm
07:42 PM 32.9°F0.5°C 18.6°F-7.4°C 55% Calm Calm 2.0 mph3.2 kmh 30.45 in1031.2 mb 0.00 in0.0 mm 0.00 in0.0 mm 0.00 in0.0 mm
08:03 PM 32.6°F0.3°C 19.0°F-7.2°C 57% 1.0 mph W1.6 kmh W 2.0 mph3.2 kmh 30.46 in1031.5 mb 0.00 in0.0 mm 0.00 in0.0 mm 0.00 in0.0 mm
08:21 PM 32.1°F0.1°C 19.7°F-6.8°C 60% 1.0 mph W1.6 kmh W 3.0 mph4.8 kmh 30.48 in1032.2 mb 0.00 in0.0 mm 0.00 in0.0 mm 0.00 in0.0 mm
08:42 PM 32.0°F0.0°C 19.3°F-7.1°C 59% 1.0 mph W1.6 kmh W 3.0 mph4.8 kmh 30.49 in1032.5 mb 0.00 in0.0 mm 0.00 in0.0 mm 0.00 in0.0 mm
09:03 PM 32.3°F0.2°C 19.1°F-7.2°C 58% 2.0 mph W3.2 kmh W 4.0 mph6.4 kmh 30.49 in1032.5 mb 0.00 in0.0 mm 0.00 in0.0 mm 0.00 in0.0 mm
09:21 PM 32.5°F0.3°C 18.3°F-7.6°C 55% 1.0 mph W1.6 kmh W 2.0 mph3.2 kmh 30.49 in1032.5 mb 0.00 in0.0 mm 0.00 in0.0 mm 0.00 in0.0 mm
09:42 PM 31.4°F-0.3°C 19.0°F-7.2°C 60% 1.0 mph W1.6 kmh W 3.0 mph4.8 kmh 30.52 in1033.5 mb 0.00 in0.0 mm 0.00 in0.0 mm 0.00 in0.0 mm
10:03 PM 31.3°F-0.4°C 19.7°F-6.8°C 62% 2.0 mph WNW3.2 kmh WNW 4.0 mph6.4 kmh 30.52 in1033.5 mb 0.00 in0.0 mm 0.00 in0.0 mm 0.00 in0.0 mm
10:21 PM 32.1°F0.1°C 18.3°F-7.6°C 56% 2.0 mph NE3.2 kmh NE 4.0 mph6.4 kmh 30.51 in1033.2 mb 0.00 in0.0 mm 0.00 in0.0 mm 0.00 in0.0 mm
10:42 PM 31.9°F-0.1°C 17.6°F-8.0°C 55% 1.0 mph NE1.6 kmh NE 4.0 mph6.4 kmh 30.52 in1033.5 mb 0.00 in0.0 mm 0.00 in0.0 mm 0.00 in0.0 mm
11:03 PM 30.7°F-0.7°C 17.1°F-8.3°C 57% 1.0 mph NE1.6 kmh NE 2.0 mph3.2 kmh 30.54 in1034.2 mb 0.00 in0.0 mm 0.00 in0.0 mm 0.00 in0.0 mm
11:21 PM 29.9°F-1.2°C 17.8°F-7.9°C 60% 2.0 mph NE3.2 kmh NE 3.0 mph4.8 kmh 30.55 in1034.5 mb 0.00 in0.0 mm 0.00 in0.0 mm 0.00 in0.0 mm
11:42 PM 29.3°F-1.5°C 17.5°F-8.1°C 61% 1.0 mph NE1.6 kmh NE 2.0 mph3.2 kmh 30.55 in1034.5 mb 0.00 in0.0 mm 0.00 in0.0 mm 0.00 in0.0 mm